Adirondack, New York
Current Conditions -  °F | °C
As of 4:53 PM on Friday 24 Oct 2014 (Local Time) from KGFL Reporting Station
Overcast Overcast  
Wind Chill: 47°   Ceiling: 600
Heat Index: 47°   Visibility: 10mi
Dew Point: 44°   Wind: 3mph
Humidity: 90%   Direction: 80°E
Pressure: 29.82"   Gusts: NA
Location:  43.76°N, 73.76°W
Report Text: KGFL 242053Z AUTO 08003KT 10SM OVC006 08/07 A2982 RMK AO2 CIG 004V008 SLP103 T00830067 53001
Loading
Personal Weather Stations






























Interactive Weather Map
Tropical Storm Tracking
New forecast layout! Learn more

10-Day Weather Forecast

Advertisements
Track Severe Weather on mobile